Luka Cruz

Olheiro - Sevilla
4 Abr 2027
Domingo
Processo

Personalidade

Adaptabilidade (9) Ambição (4) Controvérsia (4) Lealdade (17) Pressão (7) Profissionalismo (3) Espírito Esportivo (7) Temperamento (6)

Perfil

Estilo de Treinamento Democrático
Licença Nacional A
Determinação 15
Gestão de Pessoas 12
Motivação 11
Disciplina 13
Satisfação no Trabalho
75%
Fadiga
0%
Função Olheiro
Salário 89.8K p/s
Contrato 14.03.2030

Desempenho

Comportamento Bom
Eficácia do Treinamento
39%
Desenvolvimento do Jogador
70%
Prevenção de Lesões
60%
Implementação Tática
65%

Eventos Recentes

Participou de uma reunião de recrutamento agora
Participou de uma reunião de recrutamento agora
Participou de uma reunião de recrutamento agora
Recomendou um alvo de transferência agora
Avaliou um jogador agora
Avaliou um jogador agora
Avaliou um jogador agora
Avaliou um jogador 7d atrás

Monitorando agora

200
Jogador Clube Status Habilidade Confiança Observado Última observação Último voto
Federico Pereira Toluca Ativo 145 / 148 40% 4 03.04.2027 -
Luis Romo Guadalajara Ativo 147 / 147 40% 6 03.04.2027 -
José Paradela Cruz Azul Ativo 135 / 148 40% 9 03.04.2027 -
Richard Ledezma Guadalajara Ativo 127 / 120 40% 5 03.04.2027 -
Gustavo Puerta Racing Santander Ativo 141 / 135 40% 2 03.04.2027 -
Andrea Colpani Monza Ativo 134 / 131 40% 1 03.04.2027 -
Ander Guevara Alavés Ativo 133 / 135 40% 2 01.04.2027 -
Marco Asensio Fenerbahce Ativo 155 / 153 40% 3 01.04.2027 -
Roberto Alvarado Guadalajara Ativo 141 / 130 40% 2 01.04.2027 -
Maxime Lopez Paris FC Ativo 139 / 127 40% 1 01.04.2027 -
Jeremy Toljan Levante Ativo 134 / 133 40% 4 31.03.2027 -
Fernando Gorriarán Tigres Ativo 130 / 147 40% 3 31.03.2027 -
Zizo Al Ahly Ativo 130 / 141 40% 2 31.03.2027 -
Malcom Al Jazira Ativo 147 / 149 40% 2 26.03.2027 -
Isi Palazón Rayo Vallecano Ativo 137 / 135 40% 3 26.03.2027 -
Bryan Cristante AS Roma Ativo 145 / 156 40% 3 26.03.2027 -
Leon Goretzka Aston Villa Ativo 150 / 161 40% 1 26.03.2027 -
Guille Rosas Gijón Ativo 134 / 128 40% 4 25.03.2027 -
Alejandro Catena Osasuna Ativo 134 / 139 40% 3 25.03.2027 -
Nadir Zortea Bologna Ativo 139 / 137 40% 1 25.03.2027 -
Alfonso Pastor Maritimo Ativo 106 / 102 40% 2 23.03.2027 -
Jakub Surovčík Sparta Prague Ativo 114 / 117 40% 2 23.03.2027 -
Jordan Amissah Burton Albion Ativo 109 / 102 40% 1 23.03.2027 -
Hidemasa Morita Hull City Ativo 138 / 144 40% 6 21.03.2027 -
Nordi Mukiele Sunderland Ativo 141 / 138 40% 1 21.03.2027 -
Alejandro Zendejas Club America Ativo 151 / 125 40% 3 20.03.2027 -
Adama Traoré Deportivo La Coruña Ativo 144 / 132 40% 3 19.03.2027 -
Leroy Sané Galatasaray Ativo 166 / 162 40% 3 19.03.2027 -
Lucas Boyé Alavés Ativo 141 / 149 40% 3 18.03.2027 -
Erik Lira Cruz Azul Ativo 139 / 134 40% 6 18.03.2027 -
Marcel Ruiz Toluca Ativo 140 / 144 40% 3 17.03.2027 -
Bernardo Fontes Braga Ativo 131 / 122 40% 3 16.03.2027 -
John McGinn Aston Villa Ativo 150 / 153 40% 3 16.03.2027 -
Denys Ihnatenko Livyi Bereh Ativo 105 / 116 40% 1 16.03.2027 -
Mattéo Guendouzi Fenerbahce Ativo 146 / 152 40% 4 14.03.2027 -
Anthony Patterson Wrexham Ativo 132 / 125 40% 4 13.03.2027 -
Egoitz Arana Real Sociedad Ativo 109 / 110 67% 4 13.03.2027 Observar
Orkun Kökçü Besiktas Ativo 152 / 146 40% 2 10.03.2027 -
Igor Zubeldia Real Sociedad Ativo 144 / 132 40% 3 09.03.2027 -
Antonino Gallo Lecce Ativo 142 / 130 40% 1 09.03.2027 -
Kerem Aktürkoğlu Fenerbahce Ativo 138 / 146 40% 3 07.03.2027 -
Jesús Gallardo Toluca Ativo 145 / 125 40% 3 07.03.2027 -
Marcos Llorente Atlético Madrid Ativo 148 / 167 40% 1 07.03.2027 -
Victor Araujo Veracruz Ativo 156 / 153 40% 3 06.03.2027 -
Moussa Diaby Al-Ittihad Ativo 162 / 150 40% 2 06.03.2027 -
Leandro Trossard Besiktas Ativo 164 / 155 40% 4 03.03.2027 -
Urko González Espanyol Ativo 146 / 145 40% 1 01.03.2027 -
Mouctar Diakhaby Valencia Ativo 136 / 152 40% 1 25.02.2027 -
Kevin Álvarez Club America Ativo 131 / 126 40% 1 24.02.2027 -
Unai López Rayo Vallecano Ativo 133 / 127 40% 1 24.02.2027 -
Mateo Kovačić Manchester City Ativo 149 / 157 40% 1 23.02.2027 -
Kenny Tete Fulham Ativo 149 / 147 40% 2 22.02.2027 -
José Gayà Valencia Ativo 132 / 144 40% 2 21.02.2027 -
Víctor Gómez Braga Ativo 147 / 130 40% 1 21.02.2027 -
Luiz Henrique Zenit Ativo 150 / 147 40% 1 17.02.2027 -
Andrew Robertson Tottenham Ativo 149 / 143 40% 1 17.02.2027 -
Sebastián Cáceres Club America Ativo 136 / 134 40% 2 15.02.2027 -
Orbelín Pineda Monterrey Ativo 138 / 134 40% 1 14.02.2027 -
Bernardo Silva Real Madrid Ativo 167 / 174 40% 1 13.02.2027 -
Sandro Las Palmas Ativo 144 / 141 40% 1 12.02.2027 -
Gonzalo Plata Dinamo Moscow Ativo 133 / 143 40% 1 12.02.2027 -
Manu Morlanes Mallorca Ativo 129 / 130 40% 1 10.02.2027 -
Yuri Alberto Corinthians Ativo 154 / 129 40% 3 09.02.2027 -
Arnaut Danjuma Valencia Ativo 147 / 129 40% 1 09.02.2027 -
Ruslan Neshcheret Dynamo Kyiv Ativo 128 / 123 40% 2 08.02.2027 -
Robin Risser RC Lens Ativo 145 / 143 40% 1 08.02.2027 -
Igor Nikić Mirandés Ativo 115 / 110 40% 3 01.02.2027 -
Axel Alderweireld KV Oostende Ativo 148 / 151 40% 2 01.02.2027 -
Matthieu Epolo Standard Liege Ativo 124 / 122 40% 1 01.02.2027 -
Michy Fellaini KV Oostende Ativo 139 / 136 40% 5 28.01.2027 -
Luis Romo Guadalajara Perdido 141 / 154 40% 1 28.01.2027 -
Carl Rushworth Coventry City Ativo 132 / 140 40% 3 23.01.2027 -
Richard Ledezma Guadalajara Perdido 130 / 150 40% 1 22.01.2027 -
Fran Beltrán Girona Ativo 133 / 130 40% 1 22.01.2027 -
Carlos Rodríguez Cruz Azul Ativo 129 / 131 40% 1 21.01.2027 -
Iñaki Williams Athletic Bilbao Rejeitado 156 / 150 40% 9 15.01.2027 Rejeitar
Leo Román Deportivo La Coruña Rejeitado 150 / 144 40% 2 15.01.2027 Mais informações
Nikita Kokarev Krylya Sovetov Perdido 112 / 122 40% 1 15.01.2027 -
Heorhii Yermakov Metalist Ativo 122 / 127 40% 1 15.01.2027 -
Kingsley Coman Al-Nassr Ativo 155 / 155 40% 1 15.01.2027 -
Fernando Gorriarán Tigres Perdido 146 / 127 40% 1 15.01.2027 -
Jorge Pascual Granada Ativo 126 / 133 69% 1 11.01.2027 Aprovar
Kaio Jorge Cruzeiro Ativo 136 / 144 40% 3 31.12.2026 -
Lucas Torreira Galatasaray Ativo 146 / 141 40% 3 30.12.2026 -
Yoane Wissa Newcastle United Ativo 149 / 141 40% 6 29.12.2026 -
Akor Adams Venezia Ativo 137 / 144 40% 2 29.12.2026 -
Sergej Milinković-Savić Al-Hilal Ativo 147 / 166 40% 2 28.12.2026 -
Thierry Rendall Correia Venezia Ativo 147 / 132 40% 1 28.12.2026 -
Federico Bernardeschi Bologna Ativo 141 / 147 40% 3 26.12.2026 -
Hugo Duro Valencia Ativo 146 / 134 40% 6 26.12.2026 -
Folarin Balogun Monaco Ativo 133 / 146 40% 4 26.12.2026 -
Gorka Guruzeta Athletic Bilbao Ativo 142 / 142 40% 7 25.12.2026 -
Hamza Igamane LOSC Lille Ativo 132 / 138 40% 2 25.12.2026 -
Ben Chilwell RC Strasbourg Ativo 144 / 134 40% 2 24.12.2026 -
Oleksandr Zinchenko Fenerbahce Ativo 150 / 146 40% 1 24.12.2026 -
Martin Valjent Mallorca Ativo 146 / 135 40% 1 24.12.2026 -
Yehvann Diouf OGC Nice Ativo 138 / 134 40% 2 23.12.2026 -
Mauro Arambarri River Plate Ativo 154 / 140 40% 3 23.12.2026 -
Ismaël Bennacer Palmeiras Ativo 135 / 132 40% 1 23.12.2026 -
Milan Škriniar Fenerbahce Ativo 152 / 145 40% 1 23.12.2026 -
Luciano Gondou CSKA Moscow Ativo 133 / 134 40% 1 22.12.2026 -
Ricardo Horta Braga Ativo 150 / 147 40% 4 21.12.2026 -
Santiago Mina VfL Wolfsburg Ativo 137 / 152 40% 4 18.12.2026 -
Brian Brobbey Sunderland Ativo 146 / 133 40% 1 18.12.2026 -
Taiwo Awoniyi Coventry City Ativo 135 / 141 40% 3 17.12.2026 -
Breel Embolo Brighton Ativo 131 / 130 40% 4 17.12.2026 -
Ruben Loftus-Cheek AC Milan Ativo 146 / 139 40% 1 16.12.2026 -
Marco Pineda VfB Stuttgart Ativo 138 / 137 40% 5 15.12.2026 -
Che Adams Torino Ativo 136 / 145 40% 4 15.12.2026 -
Ludovic Ajorque Stade Brestois Perdido 139 / 133 40% 4 14.12.2026 -
Talisca Fenerbahce Ativo 142 / 144 40% 4 14.12.2026 -
Jens Odgaard Bologna Ativo 141 / 133 40% 4 13.12.2026 -
Jason Januzaj Mouscron Ativo 151 / 136 40% 5 08.12.2026 -
Eddie Nketiah Crystal Palace Ativo 139 / 141 40% 1 08.12.2026 -
Saša Lukić Ipswich Town Ativo 148 / 133 40% 1 08.12.2026 -
André-Franck Zambo Anguissa Napoli Ativo 155 / 159 40% 2 06.12.2026 -
Ola Aina Nottingham Forest Ativo 142 / 135 40% 1 06.12.2026 -
Lucas Da Cunha Como Ativo 150 / 153 40% 1 04.12.2026 -
Jean-Luc Morin Tours Ativo 137 / 143 40% 4 03.12.2026 -
Valentín Barco Chelsea Ativo 137 / 142 40% 2 02.12.2026 -
Andreas Jungdal Westerlo Ativo 127 / 112 40% 1 02.12.2026 -
Adriano Bertaccini Anderlecht Ativo 121 / 131 40% 1 01.12.2026 -
Luis Vázquez Birmingham Ativo 124 / 131 40% 1 01.12.2026 -
Tom Cannon Sheffield United Ativo 134 / 123 40% 1 01.12.2026 -
Alexey Miranchuk Newcastle United Ativo 141 / 138 40% 3 30.11.2026 -
Ivan Toney Al-Ahli Ativo 140 / 133 40% 1 30.11.2026 -
Dodi Lukébakio Benfica Ativo 137 / 144 40% 3 29.11.2026 -
Matías Fernández-Pardo LOSC Lille Ativo 136 / 138 40% 2 28.11.2026 -
Ferland Mendy Real Madrid Ativo 143 / 139 40% 2 26.11.2026 -
Théo Hernández Al-Hilal Ativo 140 / 165 40% 2 26.11.2026 -
Elia Caprile Cagliari Ativo 138 / 142 40% 2 25.11.2026 -
Nahuel Galardi Maipú Ativo 115 / 125 40% 1 25.11.2026 -
Vedat Muriqi Fenerbahce Perdido 140 / 144 40% 1 21.11.2026 -
Joaquín Enrico San Telmo Ativo 101 / 112 40% 2 20.11.2026 -
Guilherme Fernandes Córdoba Ativo 137 / 136 40% 1 20.11.2026 -
Facundo Vila Estudiantes Ativo 95 / 100 40% 1 20.11.2026 -
Iván Martín Racing Club Ativo 149 / 158 40% 2 16.11.2026 -
Đorđe Petrović Bournemouth Ativo 148 / 146 40% 2 15.11.2026 -
Mateo Pellegrino Fiorentina Ativo 142 / 131 40% 2 15.11.2026 -
Giovanni Simeone Torino Ativo 131 / 138 40% 1 15.11.2026 -
Randal Kolo Muani Juventus Ativo 145 / 143 40% 3 14.11.2026 -
Umar Sadiq Valencia Ativo 131 / 133 40% 2 14.11.2026 -
Lucas Ocampos West Ham United Ativo 152 / 157 40% 2 12.11.2026 -
Ricardo Pepi PSV Ativo 143 / 138 40% 2 11.11.2026 -
Alexander Sørloth Atlético Madrid Ativo 143 / 147 40% 3 09.11.2026 -
Robin Roefs Sunderland Ativo 141 / 151 40% 3 09.11.2026 -
Andrés Martín Racing Santander Ativo 128 / 122 40% 2 07.11.2026 -
Davide Calabria Panathinaikos Ativo 143 / 133 40% 1 07.11.2026 -
Michael Cooper Sheffield United Ativo 134 / 136 40% 2 03.11.2026 -
Grégoire Coudert Burnley Ativo 121 / 134 40% 2 03.11.2026 -
Soufiane Rahimi Al Ain Ativo 129 / 139 40% 2 03.11.2026 -
Musa Barrow Al-Khaleej Ativo 128 / 124 40% 1 30.10.2026 -
Alan Velasco Boca Juniors Ativo 128 / 138 40% 1 28.10.2026 -
Mohamed-Ali Cho Hull City Ativo 127 / 133 40% 1 28.10.2026 -
James Trafford Leeds United Ativo 141 / 130 40% 1 25.10.2026 -
Pau Víctor Braga Ativo 131 / 126 40% 1 24.10.2026 -
Tadeo Allende Inter Miami CF Ativo 125 / 138 40% 1 24.10.2026 -
Florián Monzón Atlas Ativo 119 / 112 40% 1 24.10.2026 -
Mauro Silveira Junior Ativo 129 / 105 40% 2 20.10.2026 -
Nicolás Sumavil Platense Ativo 123 / 105 40% 1 20.10.2026 -
Ousmane Camara Castellón Ativo 126 / 120 40% 1 18.10.2026 -
Cesar Corona Veracruz Ativo 145 / 151 40% 1 18.10.2026 -
Kostantis Tzolakis Hull City Ativo 144 / 147 40% 1 17.10.2026 Mais informações
Jakub Stolarczyk Leicester City Ativo 136 / 133 40% 1 17.10.2026 -
Tyrese Campbell Sheffield United Ativo 132 / 130 40% 1 16.10.2026 -
Maroan Sannadi Athletic Bilbao Ativo 133 / 135 40% 1 16.10.2026 -
Nahuel Suárez La Luz Ativo 97 / 122 40% 1 14.10.2026 -
Albert Guðmundsson Fiorentina Ativo 144 / 132 40% 1 11.10.2026 -
Dwight McNeil Crystal Palace Ativo 144 / 136 40% 1 11.10.2026 -
Guus Til PSV Ativo 134 / 150 40% 2 10.10.2026 -
Williot Swedberg Celta Ativo 143 / 139 40% 1 09.10.2026 -
Steven Bergwijn Al-Ittihad Ativo 156 / 141 40% 2 05.10.2026 -
Felipe Zenobio Tigre Ativo 125 / 139 40% 1 05.10.2026 -
Jamie Cumming Oxford United Ativo 124 / 123 40% 1 05.10.2026 -
Caoimhin Kelleher Brentford Ativo 143 / 151 40% 3 02.10.2026 -
Tasos Douvikas Como Ativo 145 / 145 40% 1 02.10.2026 -
Barış Alper Yılmaz Galatasaray Ativo 149 / 155 40% 3 01.10.2026 -
Paulinho Palmeiras Ativo 133 / 129 40% 5 29.09.2026 -
Luciano Jachfe Nueva Chicago Ativo 127 / 122 40% 1 29.09.2026 -
Vitor Roque Palmeiras Ativo 152 / 130 40% 2 24.09.2026 -
Rodrigo Morínigo Libertad Ativo 121 / 104 40% 1 24.09.2026 -
Roberto Fernández Braga Ativo 133 / 138 40% 1 17.09.2026 -
Boulaye Dia Lazio Ativo 136 / 144 40% 1 16.09.2026 -
Amine Gouiri Olympique de Marseille Ativo 142 / 145 40% 1 16.09.2026 -
Alejo Gelsomino Gimnasia La Plata Ativo 104 / 115 40% 1 14.09.2026 -
Xavi Grande Levante Ativo 112 / 117 40% 1 14.09.2026 -
Yoan Bonny Inter Ativo 140 / 153 40% 1 10.09.2026 -
Ollie Scarles West Ham United Ativo 134 / 129 40% 1 10.09.2026 -
Mbekezeli Mbokazi Chicago Fire Ativo 119 / 122 40% 1 10.09.2026 -
Lucas Richarte Temperley Ativo 92 / 102 40% 1 10.09.2026 -
Ignacio Perruzzi San Lorenzo Ativo 124 / 137 40% 1 05.09.2026 -
Juan Fernándes Pinto Almagro Ativo 110 / 112 40% 1 05.09.2026 -
Cemran Dansin Orlando Pirates Ativo 103 / 102 40% 1 05.09.2026 -
Mateo Retegui Al-Qadisiyah Ativo 165 / 162 40% 2 02.09.2026 -
Nikola Vlašić Torino Ativo 145 / 135 40% 1 02.09.2026 -
Paulo Dybala AS Roma Ativo 142 / 147 40% 1 31.08.2026 -
Rasmus Kristensen FC Midtjylland Ativo 137 / 124 40% 1 27.08.2026 -
Ángel Correa River Plate Ativo 140 / 146 40% 1 18.08.2026 -
Alexis Vega Toluca Ativo 156 / 153 40% 1 18.08.2026 -
Karim Adeyemi Barcelona Ativo 145 / 150 40% 1 01.08.2026 -